sensor_id;sensor_type;location;lat;lon;timestamp;temperature;humidity
76751;SHT31;65216;51.090;-115.352;2023-01-31T00:00:03;21.03;17.38
76751;SHT31;65216;51.090;-115.352;2023-01-31T00:02:34;21.01;17.58
76751;SHT31;65216;51.090;-115.352;2023-01-31T00:05:01;20.98;17.61
76751;SHT31;65216;51.090;-115.352;2023-01-31T00:07:31;20.97;17.69
76751;SHT31;65216;51.090;-115.352;2023-01-31T00:10:04;20.95;17.79
76751;SHT31;65216;51.090;-115.352;2023-01-31T00:12:35;20.93;17.81
76751;SHT31;65216;51.090;-115.352;2023-01-31T00:15:02;20.90;17.93
76751;SHT31;65216;51.090;-115.352;2023-01-31T00:17:32;20.89;18.09
76751;SHT31;65216;51.090;-115.352;2023-01-31T00:20:02;20.89;18.11
76751;SHT31;65216;51.090;-115.352;2023-01-31T00:22:30;20.88;18.11
76751;SHT31;65216;51.090;-115.352;2023-01-31T00:24:59;20.87;18.28
76751;SHT31;65216;51.090;-115.352;2023-01-31T00:27:27;20.85;18.32
76751;SHT31;65216;51.090;-115.352;2023-01-31T00:29:59;20.83;18.47
76751;SHT31;65216;51.090;-115.352;2023-01-31T00:32:30;20.83;18.52
76751;SHT31;65216;51.090;-115.352;2023-01-31T00:34:57;20.83;18.59
76751;SHT31;65216;51.090;-115.352;2023-01-31T00:37:27;20.81;18.66
76751;SHT31;65216;51.090;-115.352;2023-01-31T00:40:01;20.82;18.83
76751;SHT31;65216;51.090;-115.352;2023-01-31T00:42:31;20.82;18.94
76751;SHT31;65216;51.090;-115.352;2023-01-31T00:45:01;20.80;19.05
76751;SHT31;65216;51.090;-115.352;2023-01-31T00:47:29;20.79;19.24
76751;SHT31;65216;51.090;-115.352;2023-01-31T00:49:56;20.79;19.25
76751;SHT31;65216;51.090;-115.352;2023-01-31T00:52:27;20.77;19.40
76751;SHT31;65216;51.090;-115.352;2023-01-31T00:54:55;20.78;19.49
76751;SHT31;65216;51.090;-115.352;2023-01-31T00:57:22;20.78;19.60
76751;SHT31;65216;51.090;-115.352;2023-01-31T00:59:49;20.78;19.79
76751;SHT31;65216;51.090;-115.352;2023-01-31T01:02:17;20.78;19.89
76751;SHT31;65216;51.090;-115.352;2023-01-31T01:04:47;20.76;20.20
76751;SHT31;65216;51.090;-115.352;2023-01-31T01:07:17;20.71;20.26
76751;SHT31;65216;51.090;-115.352;2023-01-31T01:09:47;20.70;20.35
76751;SHT31;65216;51.090;-115.352;2023-01-31T01:12:16;20.70;20.46
76751;SHT31;65216;51.090;-115.352;2023-01-31T01:14:47;20.68;20.62
76751;SHT31;65216;51.090;-115.352;2023-01-31T01:17:14;20.66;20.68
76751;SHT31;65216;51.090;-115.352;2023-01-31T01:19:44;20.66;20.88
76751;SHT31;65216;51.090;-115.352;2023-01-31T01:22:14;20.66;20.87
76751;SHT31;65216;51.090;-115.352;2023-01-31T01:24:44;20.65;20.97
76751;SHT31;65216;51.090;-115.352;2023-01-31T01:27:12;20.65;21.14
76751;SHT31;65216;51.090;-115.352;2023-01-31T01:29:39;20.64;21.19
76751;SHT31;65216;51.090;-115.352;2023-01-31T01:32:07;20.65;21.27
76751;SHT31;65216;51.090;-115.352;2023-01-31T01:34:34;20.66;21.30
76751;SHT31;65216;51.090;-115.352;2023-01-31T01:37:06;20.66;21.31
76751;SHT31;65216;51.090;-115.352;2023-01-31T01:39:37;20.64;21.40
76751;SHT31;65216;51.090;-115.352;2023-01-31T01:42:11;20.64;21.45
76751;SHT31;65216;51.090;-115.352;2023-01-31T01:44:58;20.62;21.40
76751;SHT31;65216;51.090;-115.352;2023-01-31T01:53:20;20.62;21.57
76751;SHT31;65216;51.090;-115.352;2023-01-31T01:55:54;20.59;21.57
76751;SHT31;65216;51.090;-115.352;2023-01-31T01:58:35;20.58;21.51
76751;SHT31;65216;51.090;-115.352;2023-01-31T02:01:13;20.60;21.54
76751;SHT31;65216;51.090;-115.352;2023-01-31T02:03:41;20.57;21.57
76751;SHT31;65216;51.090;-115.352;2023-01-31T02:06:12;20.55;21.61
76751;SHT31;65216;51.090;-115.352;2023-01-31T02:08:40;20.52;21.73
76751;SHT31;65216;51.090;-115.352;2023-01-31T02:11:13;20.53;21.84
76751;SHT31;65216;51.090;-115.352;2023-01-31T02:13:47;20.54;21.71
76751;SHT31;65216;51.090;-115.352;2023-01-31T02:16:20;20.53;21.82
76751;SHT31;65216;51.090;-115.352;2023-01-31T02:18:48;20.54;21.84
76751;SHT31;65216;51.090;-115.352;2023-01-31T02:21:26;20.56;21.85
76751;SHT31;65216;51.090;-115.352;2023-01-31T02:33:13;20.51;21.87
76751;SHT31;65216;51.090;-115.352;2023-01-31T02:41:51;20.50;21.73
76751;SHT31;65216;51.090;-115.352;2023-01-31T02:50:13;20.45;21.89
76751;SHT31;65216;51.090;-115.352;2023-01-31T02:53:12;20.41;21.98
76751;SHT31;65216;51.090;-115.352;2023-01-31T02:55:52;20.38;21.92
76751;SHT31;65216;51.090;-115.352;2023-01-31T02:58:48;20.38;21.82
76751;SHT31;65216;51.090;-115.352;2023-01-31T03:01:42;20.34;21.72
76751;SHT31;65216;51.090;-115.352;2023-01-31T03:04:13;20.32;21.97
76751;SHT31;65216;51.090;-115.352;2023-01-31T03:09:37;20.34;21.93
76751;SHT31;65216;51.090;-115.352;2023-01-31T03:15:44;20.35;21.76
76751;SHT31;65216;51.090;-115.352;2023-01-31T03:18:59;20.35;21.78
76751;SHT31;65216;51.090;-115.352;2023-01-31T03:24:37;20.35;21.70
76751;SHT31;65216;51.090;-115.352;2023-01-31T03:27:09;20.33;21.81
76751;SHT31;65216;51.090;-115.352;2023-01-31T03:29:37;20.31;21.88
76751;SHT31;65216;51.090;-115.352;2023-01-31T03:32:10;20.30;21.83
76751;SHT31;65216;51.090;-115.352;2023-01-31T03:34:45;20.30;21.82
76751;SHT31;65216;51.090;-115.352;2023-01-31T03:37:24;20.31;21.68
76751;SHT31;65216;51.090;-115.352;2023-01-31T03:40:32;20.32;21.63
76751;SHT31;65216;51.090;-115.352;2023-01-31T03:45:59;20.30;21.48
76751;SHT31;65216;51.090;-115.352;2023-01-31T03:48:41;20.27;21.36
76751;SHT31;65216;51.090;-115.352;2023-01-31T03:51:18;20.26;21.33
76751;SHT31;65216;51.090;-115.352;2023-01-31T03:53:52;20.25;21.36
76751;SHT31;65216;51.090;-115.352;2023-01-31T03:56:43;20.22;21.29
76751;SHT31;65216;51.090;-115.352;2023-01-31T03:59:24;20.23;21.22
76751;SHT31;65216;51.090;-115.352;2023-01-31T04:02:01;20.26;21.08
76751;SHT31;65216;51.090;-115.352;2023-01-31T04:04:41;20.28;20.94
76751;SHT31;65216;51.090;-115.352;2023-01-31T04:07:22;20.30;20.80
76751;SHT31;65216;51.090;-115.352;2023-01-31T04:09:50;20.29;20.73
76751;SHT31;65216;51.090;-115.352;2023-01-31T04:12:17;20.29;20.67
76751;SHT31;65216;51.090;-115.352;2023-01-31T04:14:44;20.29;20.58
76751;SHT31;65216;51.090;-115.352;2023-01-31T04:17:15;20.29;20.41
76751;SHT31;65216;51.090;-115.352;2023-01-31T04:19:42;20.29;20.36
76751;SHT31;65216;51.090;-115.352;2023-01-31T04:22:10;20.26;20.24
76751;SHT31;65216;51.090;-115.352;2023-01-31T04:24:37;20.27;20.21
76751;SHT31;65216;51.090;-115.352;2023-01-31T04:27:07;20.26;20.15
76751;SHT31;65216;51.090;-115.352;2023-01-31T04:29:35;20.26;20.09
76751;SHT31;65216;51.090;-115.352;2023-01-31T04:32:02;20.27;19.97
76751;SHT31;65216;51.090;-115.352;2023-01-31T04:34:35;20.28;19.80
76751;SHT31;65216;51.090;-115.352;2023-01-31T04:37:03;20.28;19.77
76751;SHT31;65216;51.090;-115.352;2023-01-31T04:39:30;20.28;19.71
76751;SHT31;65216;51.090;-115.352;2023-01-31T04:42:00;20.27;19.61
76751;SHT31;65216;51.090;-115.352;2023-01-31T04:44:30;20.26;19.50
76751;SHT31;65216;51.090;-115.352;2023-01-31T04:46:57;20.25;19.47
76751;SHT31;65216;51.090;-115.352;2023-01-31T04:49:25;20.24;19.46
76751;SHT31;65216;51.090;-115.352;2023-01-31T04:51:52;20.23;19.36
76751;SHT31;65216;51.090;-115.352;2023-01-31T04:54:20;20.24;19.33
76751;SHT31;65216;51.090;-115.352;2023-01-31T04:56:47;20.23;19.21
76751;SHT31;65216;51.090;-115.352;2023-01-31T04:59:17;20.23;19.09
76751;SHT31;65216;51.090;-115.352;2023-01-31T05:01:44;20.22;19.08
76751;SHT31;65216;51.090;-115.352;2023-01-31T05:04:12;20.22;18.93
76751;SHT31;65216;51.090;-115.352;2023-01-31T05:06:39;20.21;18.81
76751;SHT31;65216;51.090;-115.352;2023-01-31T05:09:06;20.20;18.64
76751;SHT31;65216;51.090;-115.352;2023-01-31T05:11:35;20.19;18.57
76751;SHT31;65216;51.090;-115.352;2023-01-31T05:14:03;20.18;18.48
76751;SHT31;65216;51.090;-115.352;2023-01-31T05:16:33;20.17;18.40
76751;SHT31;65216;51.090;-115.352;2023-01-31T05:19:00;20.16;18.31
76751;SHT31;65216;51.090;-115.352;2023-01-31T05:21:28;20.15;18.16
76751;SHT31;65216;51.090;-115.352;2023-01-31T05:24:15;20.14;18.08
76751;SHT31;65216;51.090;-115.352;2023-01-31T05:26:44;20.14;18.00
76751;SHT31;65216;51.090;-115.352;2023-01-31T05:29:17;20.12;17.91
76751;SHT31;65216;51.090;-115.352;2023-01-31T05:31:44;20.11;17.79
76751;SHT31;65216;51.090;-115.352;2023-01-31T05:34:15;20.10;17.70
76751;SHT31;65216;51.090;-115.352;2023-01-31T05:36:42;20.08;17.67
76751;SHT31;65216;51.090;-115.352;2023-01-31T05:39:09;20.06;17.56
76751;SHT31;65216;51.090;-115.352;2023-01-31T05:41:37;20.05;17.49
76751;SHT31;65216;51.090;-115.352;2023-01-31T05:44:04;20.04;17.48
76751;SHT31;65216;51.090;-115.352;2023-01-31T05:46:32;20.03;17.40
76751;SHT31;65216;51.090;-115.352;2023-01-31T05:48:59;20.02;17.31
76751;SHT31;65216;51.090;-115.352;2023-01-31T05:51:27;20.02;17.24
76751;SHT31;65216;51.090;-115.352;2023-01-31T05:53:54;20.02;17.13
76751;SHT31;65216;51.090;-115.352;2023-01-31T05:56:21;20.01;17.10
76751;SHT31;65216;51.090;-115.352;2023-01-31T05:58:51;20.01;17.14
76751;SHT31;65216;51.090;-115.352;2023-01-31T06:01:20;20.00;17.19
76751;SHT31;65216;51.090;-115.352;2023-01-31T06:03:52;20.00;17.17
76751;SHT31;65216;51.090;-115.352;2023-01-31T06:06:22;20.00;17.25
76751;SHT31;65216;51.090;-115.352;2023-01-31T06:08:52;19.99;17.47
76751;SHT31;65216;51.090;-115.352;2023-01-31T06:11:20;19.98;17.74
76751;SHT31;65216;51.090;-115.352;2023-01-31T06:13:47;19.96;18.21
76751;SHT31;65216;51.090;-115.352;2023-01-31T06:16:17;19.95;18.42
76751;SHT31;65216;51.090;-115.352;2023-01-31T06:18:45;19.94;18.18
76751;SHT31;65216;51.090;-115.352;2023-01-31T06:21:12;19.94;17.93
76751;SHT31;65216;51.090;-115.352;2023-01-31T06:23:41;19.93;17.87
76751;SHT31;65216;51.090;-115.352;2023-01-31T06:26:11;19.93;18.02
76751;SHT31;65216;51.090;-115.352;2023-01-31T06:28:38;19.92;18.10
76751;SHT31;65216;51.090;-115.352;2023-01-31T06:31:09;19.92;18.09
76751;SHT31;65216;51.090;-115.352;2023-01-31T06:33:38;19.91;18.19
76751;SHT31;65216;51.090;-115.352;2023-01-31T06:36:05;19.91;18.13
76751;SHT31;65216;51.090;-115.352;2023-01-31T06:38:36;19.90;18.10
76751;SHT31;65216;51.090;-115.352;2023-01-31T06:41:03;19.90;18.05
76751;SHT31;65216;51.090;-115.352;2023-01-31T06:43:31;19.89;17.88
76751;SHT31;65216;51.090;-115.352;2023-01-31T06:45:59;19.88;17.79
76751;SHT31;65216;51.090;-115.352;2023-01-31T06:48:28;19.88;17.80
76751;SHT31;65216;51.090;-115.352;2023-01-31T06:50:56;19.87;17.84
76751;SHT31;65216;51.090;-115.352;2023-01-31T06:53:23;19.86;17.84
76751;SHT31;65216;51.090;-115.352;2023-01-31T06:55:51;19.86;17.81
76751;SHT31;65216;51.090;-115.352;2023-01-31T06:58:19;19.85;17.79
76751;SHT31;65216;51.090;-115.352;2023-01-31T07:00:46;19.86;17.71
76751;SHT31;65216;51.090;-115.352;2023-01-31T07:03:13;19.84;17.75
76751;SHT31;65216;51.090;-115.352;2023-01-31T07:05:41;19.86;17.70
76751;SHT31;65216;51.090;-115.352;2023-01-31T07:08:10;19.84;17.67
76751;SHT31;65216;51.090;-115.352;2023-01-31T07:10:47;19.83;17.62
76751;SHT31;65216;51.090;-115.352;2023-01-31T07:13:17;19.82;17.50
76751;SHT31;65216;51.090;-115.352;2023-01-31T07:15:47;19.82;17.46
76751;SHT31;65216;51.090;-115.352;2023-01-31T07:18:15;19.82;17.39
76751;SHT31;65216;51.090;-115.352;2023-01-31T07:20:42;19.80;17.38
76751;SHT31;65216;51.090;-115.352;2023-01-31T07:23:10;19.80;17.29
76751;SHT31;65216;51.090;-115.352;2023-01-31T07:25:39;19.76;17.23
76751;SHT31;65216;51.090;-115.352;2023-01-31T07:28:08;19.75;17.14
76751;SHT31;65216;51.090;-115.352;2023-01-31T07:30:36;19.74;17.10
76751;SHT31;65216;51.090;-115.352;2023-01-31T07:33:09;19.73;17.04
76751;SHT31;65216;51.090;-115.352;2023-01-31T07:35:37;19.71;16.95
76751;SHT31;65216;51.090;-115.352;2023-01-31T07:38:06;19.69;16.94
76751;SHT31;65216;51.090;-115.352;2023-01-31T07:40:33;19.68;16.86
76751;SHT31;65216;51.090;-115.352;2023-01-31T07:43:01;19.67;16.81
76751;SHT31;65216;51.090;-115.352;2023-01-31T07:45:28;19.67;16.78
76751;SHT31;65216;51.090;-115.352;2023-01-31T07:47:56;19.65;16.73
76751;SHT31;65216;51.090;-115.352;2023-01-31T07:50:27;19.62;16.70
76751;SHT31;65216;51.090;-115.352;2023-01-31T07:52:56;19.61;16.63
76751;SHT31;65216;51.090;-115.352;2023-01-31T07:55:24;19.59;16.62
76751;SHT31;65216;51.090;-115.352;2023-01-31T07:57:52;19.59;16.55
76751;SHT31;65216;51.090;-115.352;2023-01-31T08:00:22;19.58;16.53
76751;SHT31;65216;51.090;-115.352;2023-01-31T08:03:41;19.57;16.48
76751;SHT31;65216;51.090;-115.352;2023-01-31T08:06:07;19.54;16.42
76751;SHT31;65216;51.090;-115.352;2023-01-31T08:08:39;19.53;16.40
76751;SHT31;65216;51.090;-115.352;2023-01-31T08:11:06;19.50;16.39
76751;SHT31;65216;51.090;-115.352;2023-01-31T08:13:34;19.48;16.38
76751;SHT31;65216;51.090;-115.352;2023-01-31T08:16:06;19.46;16.31
76751;SHT31;65216;51.090;-115.352;2023-01-31T08:18:37;19.46;16.30
76751;SHT31;65216;51.090;-115.352;2023-01-31T08:21:05;19.45;16.25
76751;SHT31;65216;51.090;-115.352;2023-01-31T08:23:36;19.44;16.27
76751;SHT31;65216;51.090;-115.352;2023-01-31T08:26:06;19.44;16.24
76751;SHT31;65216;51.090;-115.352;2023-01-31T08:28:38;19.44;16.19
76751;SHT31;65216;51.090;-115.352;2023-01-31T08:31:09;19.42;16.14
76751;SHT31;65216;51.090;-115.352;2023-01-31T08:33:46;19.40;16.09
76751;SHT31;65216;51.090;-115.352;2023-01-31T08:36:22;19.39;16.10
76751;SHT31;65216;51.090;-115.352;2023-01-31T08:39:01;19.39;16.06
76751;SHT31;65216;51.090;-115.352;2023-01-31T08:41:32;19.39;16.04
76751;SHT31;65216;51.090;-115.352;2023-01-31T08:44:01;19.37;16.00
76751;SHT31;65216;51.090;-115.352;2023-01-31T08:46:32;19.35;15.98
76751;SHT31;65216;51.090;-115.352;2023-01-31T08:49:03;19.35;15.97
76751;SHT31;65216;51.090;-115.352;2023-01-31T08:51:32;19.34;15.99
76751;SHT31;65216;51.090;-115.352;2023-01-31T08:53:59;19.34;15.95
76751;SHT31;65216;51.090;-115.352;2023-01-31T08:56:27;19.33;15.90
76751;SHT31;65216;51.090;-115.352;2023-01-31T08:58:58;19.31;15.91
76751;SHT31;65216;51.090;-115.352;2023-01-31T09:01:25;19.30;15.86
76751;SHT31;65216;51.090;-115.352;2023-01-31T09:03:53;19.29;15.83
76751;SHT31;65216;51.090;-115.352;2023-01-31T09:06:22;19.28;15.80
76751;SHT31;65216;51.090;-115.352;2023-01-31T09:08:51;19.28;15.79
76751;SHT31;65216;51.090;-115.352;2023-01-31T09:11:21;19.26;15.79
76751;SHT31;65216;51.090;-115.352;2023-01-31T09:13:48;19.25;15.77
76751;SHT31;65216;51.090;-115.352;2023-01-31T09:16:16;19.24;15.72
76751;SHT31;65216;51.090;-115.352;2023-01-31T09:18:45;19.24;15.72
76751;SHT31;65216;51.090;-115.352;2023-01-31T09:21:14;19.24;15.69
76751;SHT31;65216;51.090;-115.352;2023-01-31T09:23:44;19.23;15.63
76751;SHT31;65216;51.090;-115.352;2023-01-31T09:26:20;19.21;15.63
76751;SHT31;65216;51.090;-115.352;2023-01-31T09:28:48;19.21;15.64
76751;SHT31;65216;51.090;-115.352;2023-01-31T09:31:16;19.20;15.61
76751;SHT31;65216;51.090;-115.352;2023-01-31T09:33:45;19.19;15.58
76751;SHT31;65216;51.090;-115.352;2023-01-31T09:36:14;19.19;15.59
76751;SHT31;65216;51.090;-115.352;2023-01-31T09:38:45;19.20;15.59
76751;SHT31;65216;51.090;-115.352;2023-01-31T09:41:22;19.19;15.53
76751;SHT31;65216;51.090;-115.352;2023-01-31T09:43:59;19.17;15.50
76751;SHT31;65216;51.090;-115.352;2023-01-31T09:46:34;19.17;15.50
76751;SHT31;65216;51.090;-115.352;2023-01-31T09:49:09;19.16;15.49
76751;SHT31;65216;51.090;-115.352;2023-01-31T09:51:53;19.15;15.47
76751;SHT31;65216;51.090;-115.352;2023-01-31T09:54:35;19.16;15.44
76751;SHT31;65216;51.090;-115.352;2023-01-31T10:00:21;19.13;15.43
76751;SHT31;65216;51.090;-115.352;2023-01-31T10:03:31;19.12;15.44
76751;SHT31;65216;51.090;-115.352;2023-01-31T10:06:29;19.11;15.44
76751;SHT31;65216;51.090;-115.352;2023-01-31T10:12:05;19.11;15.44
76751;SHT31;65216;51.090;-115.352;2023-01-31T10:15:02;19.10;15.51
76751;SHT31;65216;51.090;-115.352;2023-01-31T10:17:47;19.10;15.50
76751;SHT31;65216;51.090;-115.352;2023-01-31T10:23:21;19.09;15.44
76751;SHT31;65216;51.090;-115.352;2023-01-31T10:25:58;19.09;15.43
76751;SHT31;65216;51.090;-115.352;2023-01-31T10:31:29;19.08;15.40
76751;SHT31;65216;51.090;-115.352;2023-01-31T10:40:00;19.07;15.39
76751;SHT31;65216;51.090;-115.352;2023-01-31T10:42:38;19.06;15.41
76751;SHT31;65216;51.090;-115.352;2023-01-31T10:47:51;19.06;15.34
76751;SHT31;65216;51.090;-115.352;2023-01-31T10:56:40;19.03;15.29
76751;SHT31;65216;51.090;-115.352;2023-01-31T10:59:17;19.01;15.30
76751;SHT31;65216;51.090;-115.352;2023-01-31T11:02:02;19.00;15.29
76751;SHT31;65216;51.090;-115.352;2023-01-31T11:04:43;19.00;15.29
76751;SHT31;65216;51.090;-115.352;2023-01-31T11:07:13;19.00;15.29
76751;SHT31;65216;51.090;-115.352;2023-01-31T11:09:53;19.01;15.26
76751;SHT31;65216;51.090;-115.352;2023-01-31T11:12:32;18.99;15.24
76751;SHT31;65216;51.090;-115.352;2023-01-31T11:15:18;18.97;15.23
76751;SHT31;65216;51.090;-115.352;2023-01-31T11:17:53;18.94;15.20
76751;SHT31;65216;51.090;-115.352;2023-01-31T11:20:34;18.94;15.21
76751;SHT31;65216;51.090;-115.352;2023-01-31T11:23:13;18.94;15.21
76751;SHT31;65216;51.090;-115.352;2023-01-31T11:25:53;18.95;15.21
76751;SHT31;65216;51.090;-115.352;2023-01-31T11:28:33;18.94;15.21
76751;SHT31;65216;51.090;-115.352;2023-01-31T11:31:13;18.94;15.21
76751;SHT31;65216;51.090;-115.352;2023-01-31T11:33:56;18.92;15.22
76751;SHT31;65216;51.090;-115.352;2023-01-31T11:36:31;18.91;15.24
76751;SHT31;65216;51.090;-115.352;2023-01-31T11:42:10;18.90;15.21
76751;SHT31;65216;51.090;-115.352;2023-01-31T11:44:57;18.89;15.21
76751;SHT31;65216;51.090;-115.352;2023-01-31T11:47:42;18.89;15.20
76751;SHT31;65216;51.090;-115.352;2023-01-31T11:50:23;18.88;15.20
76751;SHT31;65216;51.090;-115.352;2023-01-31T11:53:16;18.88;15.19
76751;SHT31;65216;51.090;-115.352;2023-01-31T11:55:56;18.86;15.16
76751;SHT31;65216;51.090;-115.352;2023-01-31T11:58:38;18.87;15.17
76751;SHT31;65216;51.090;-115.352;2023-01-31T12:01:16;18.87;15.14
76751;SHT31;65216;51.090;-115.352;2023-01-31T12:03:47;18.87;15.13
76751;SHT31;65216;51.090;-115.352;2023-01-31T12:06:39;18.86;15.12
76751;SHT31;65216;51.090;-115.352;2023-01-31T12:09:20;18.86;15.12
76751;SHT31;65216;51.090;-115.352;2023-01-31T12:11:56;18.87;15.09
76751;SHT31;65216;51.090;-115.352;2023-01-31T12:14:40;18.87;15.10
76751;SHT31;65216;51.090;-115.352;2023-01-31T12:17:12;18.88;15.05
76751;SHT31;65216;51.090;-115.352;2023-01-31T12:22:58;18.88;15.01
76751;SHT31;65216;51.090;-115.352;2023-01-31T12:37:52;18.84;15.00
76751;SHT31;65216;51.090;-115.352;2023-01-31T12:40:46;18.85;14.98
76751;SHT31;65216;51.090;-115.352;2023-01-31T12:44:09;18.84;14.96
76751;SHT31;65216;51.090;-115.352;2023-01-31T13:03:47;18.85;14.90
76751;SHT31;65216;51.090;-115.352;2023-01-31T13:06:44;18.86;14.83
76751;SHT31;65216;51.090;-115.352;2023-01-31T13:09:26;18.86;14.84
76751;SHT31;65216;51.090;-115.352;2023-01-31T13:12:11;18.88;14.89
76751;SHT31;65216;51.090;-115.352;2023-01-31T13:17:46;18.89;14.80
76751;SHT31;65216;51.090;-115.352;2023-01-31T13:23:32;18.89;14.85
76751;SHT31;65216;51.090;-115.352;2023-01-31T13:26:17;18.88;14.81
76751;SHT31;65216;51.090;-115.352;2023-01-31T13:29:17;18.88;14.83
76751;SHT31;65216;51.090;-115.352;2023-01-31T13:32:00;18.90;14.83
76751;SHT31;65216;51.090;-115.352;2023-01-31T13:35:16;18.88;14.80
76751;SHT31;65216;51.090;-115.352;2023-01-31T13:38:07;18.89;14.80
76751;SHT31;65216;51.090;-115.352;2023-01-31T13:40:46;18.89;14.82
76751;SHT31;65216;51.090;-115.352;2023-01-31T13:43:21;18.88;14.82
76751;SHT31;65216;51.090;-115.352;2023-01-31T13:48:25;18.89;14.83
76751;SHT31;65216;51.090;-115.352;2023-01-31T13:54:57;18.91;14.82
76751;SHT31;65216;51.090;-115.352;2023-01-31T13:57:42;18.92;14.86
76751;SHT31;65216;51.090;-115.352;2023-01-31T14:03:09;18.95;14.91
76751;SHT31;65216;51.090;-115.352;2023-01-31T14:06:04;18.97;14.90
76751;SHT31;65216;51.090;-115.352;2023-01-31T14:08:36;18.96;14.96
76751;SHT31;65216;51.090;-115.352;2023-01-31T14:16:46;19.00;15.05
76751;SHT31;65216;51.090;-115.352;2023-01-31T14:21:55;19.01;15.08
76751;SHT31;65216;51.090;-115.352;2023-01-31T14:24:59;19.02;15.10
76751;SHT31;65216;51.090;-115.352;2023-01-31T14:42:18;19.03;15.28
76751;SHT31;65216;51.090;-115.352;2023-01-31T14:45:40;19.02;15.32
76751;SHT31;65216;51.090;-115.352;2023-01-31T14:57:30;19.06;15.43
76751;SHT31;65216;51.090;-115.352;2023-01-31T15:06:35;19.07;15.42
76751;SHT31;65216;51.090;-115.352;2023-01-31T15:12:50;19.08;15.49
76751;SHT31;65216;51.090;-115.352;2023-01-31T15:15:38;19.09;15.55
76751;SHT31;65216;51.090;-115.352;2023-01-31T15:18:15;19.10;15.54
76751;SHT31;65216;51.090;-115.352;2023-01-31T15:20:51;19.11;15.59
76751;SHT31;65216;51.090;-115.352;2023-01-31T15:23:31;19.11;15.64
76751;SHT31;65216;51.090;-115.352;2023-01-31T15:26:05;19.12;15.64
76751;SHT31;65216;51.090;-115.352;2023-01-31T15:28:35;19.14;15.61
76751;SHT31;65216;51.090;-115.352;2023-01-31T15:31:12;19.14;15.66
76751;SHT31;65216;51.090;-115.352;2023-01-31T15:34:18;19.14;15.73
76751;SHT31;65216;51.090;-115.352;2023-01-31T15:37:04;19.14;15.75
76751;SHT31;65216;51.090;-115.352;2023-01-31T15:39:54;19.13;15.72
76751;SHT31;65216;51.090;-115.352;2023-01-31T15:42:31;19.14;15.78
76751;SHT31;65216;51.090;-115.352;2023-01-31T15:45:12;19.15;15.77
76751;SHT31;65216;51.090;-115.352;2023-01-31T15:47:58;19.16;15.80
76751;SHT31;65216;51.090;-115.352;2023-01-31T15:50:30;19.17;15.80
76751;SHT31;65216;51.090;-115.352;2023-01-31T15:53:16;19.16;15.80
76751;SHT31;65216;51.090;-115.352;2023-01-31T15:55:47;19.16;15.84
76751;SHT31;65216;51.090;-115.352;2023-01-31T15:58:24;19.16;15.85
76751;SHT31;65216;51.090;-115.352;2023-01-31T16:00:55;19.15;15.89
76751;SHT31;65216;51.090;-115.352;2023-01-31T16:03:32;19.15;15.97
76751;SHT31;65216;51.090;-115.352;2023-01-31T16:06:16;19.16;15.98
76751;SHT31;65216;51.090;-115.352;2023-01-31T16:08:53;19.18;16.01
76751;SHT31;65216;51.090;-115.352;2023-01-31T16:11:23;19.19;16.06
76751;SHT31;65216;51.090;-115.352;2023-01-31T16:13:53;19.20;16.10
76751;SHT31;65216;51.090;-115.352;2023-01-31T16:16:23;19.22;16.13
76751;SHT31;65216;51.090;-115.352;2023-01-31T16:18:53;19.23;16.15
76751;SHT31;65216;51.090;-115.352;2023-01-31T16:21:34;19.24;16.22
76751;SHT31;65216;51.090;-115.352;2023-01-31T16:24:14;19.25;16.26
76751;SHT31;65216;51.090;-115.352;2023-01-31T16:26:54;19.27;16.29
76751;SHT31;65216;51.090;-115.352;2023-01-31T16:29:46;19.26;16.29
76751;SHT31;65216;51.090;-115.352;2023-01-31T16:32:19;19.28;16.29
76751;SHT31;65216;51.090;-115.352;2023-01-31T16:37:28;19.29;16.32
76751;SHT31;65216;51.090;-115.352;2023-01-31T16:42:49;19.32;16.35
76751;SHT31;65216;51.090;-115.352;2023-01-31T16:46:04;19.33;16.39
76751;SHT31;65216;51.090;-115.352;2023-01-31T16:48:51;19.34;16.42
76751;SHT31;65216;51.090;-115.352;2023-01-31T16:54:31;19.34;16.51
76751;SHT31;65216;51.090;-115.352;2023-01-31T17:00:05;19.37;16.54
76751;SHT31;65216;51.090;-115.352;2023-01-31T17:02:57;19.39;16.59
76751;SHT31;65216;51.090;-115.352;2023-01-31T17:05:34;19.40;16.72
76751;SHT31;65216;51.090;-115.352;2023-01-31T17:08:14;19.41;16.62
76751;SHT31;65216;51.090;-115.352;2023-01-31T17:10:45;19.42;16.64
76751;SHT31;65216;51.090;-115.352;2023-01-31T17:13:22;19.42;16.83
76751;SHT31;65216;51.090;-115.352;2023-01-31T17:15:51;19.41;16.87
76751;SHT31;65216;51.090;-115.352;2023-01-31T17:18:20;19.41;16.82
76751;SHT31;65216;51.090;-115.352;2023-01-31T17:20:47;19.43;16.93
76751;SHT31;65216;51.090;-115.352;2023-01-31T17:23:18;19.45;17.00
76751;SHT31;65216;51.090;-115.352;2023-01-31T17:25:45;19.47;16.99
76751;SHT31;65216;51.090;-115.352;2023-01-31T17:28:13;19.48;16.99
76751;SHT31;65216;51.090;-115.352;2023-01-31T17:30:41;19.49;17.03
76751;SHT31;65216;51.090;-115.352;2023-01-31T17:33:10;19.51;17.06
76751;SHT31;65216;51.090;-115.352;2023-01-31T17:35:41;19.51;17.15
76751;SHT31;65216;51.090;-115.352;2023-01-31T17:38:16;19.52;17.15
76751;SHT31;65216;51.090;-115.352;2023-01-31T17:40:43;19.54;17.19
76751;SHT31;65216;51.090;-115.352;2023-01-31T17:43:18;19.54;17.21
76751;SHT31;65216;51.090;-115.352;2023-01-31T17:45:50;19.55;17.29
76751;SHT31;65216;51.090;-115.352;2023-01-31T17:48:17;19.58;17.34
76751;SHT31;65216;51.090;-115.352;2023-01-31T17:50:45;19.58;17.30
76751;SHT31;65216;51.090;-115.352;2023-01-31T17:53:12;19.58;17.25
76751;SHT31;65216;51.090;-115.352;2023-01-31T17:55:41;19.59;17.29
76751;SHT31;65216;51.090;-115.352;2023-01-31T17:58:10;19.62;17.36
76751;SHT31;65216;51.090;-115.352;2023-01-31T18:00:42;19.63;17.32
76751;SHT31;65216;51.090;-115.352;2023-01-31T18:03:21;19.62;17.36
76751;SHT31;65216;51.090;-115.352;2023-01-31T18:05:50;19.64;17.48
76751;SHT31;65216;51.090;-115.352;2023-01-31T18:08:18;19.65;17.49
76751;SHT31;65216;51.090;-115.352;2023-01-31T18:10:50;19.67;17.52
76751;SHT31;65216;51.090;-115.352;2023-01-31T18:13:19;19.69;17.54
76751;SHT31;65216;51.090;-115.352;2023-01-31T18:15:46;19.70;17.58
76751;SHT31;65216;51.090;-115.352;2023-01-31T18:18:14;19.73;17.62
76751;SHT31;65216;51.090;-115.352;2023-01-31T18:20:47;19.76;17.72